Decatur, IL (62521)

11:07 AM CDT on July 07, 2015 (GMT -0500)
Sandhill Dr. | | Change Station
CLOSE
Current Station
Personal Weather Station
Location: Decatur, IL
Elevation: 676 ft
Nearby Weather Stations

Elev 676 ft 39.82 °N, 88.92 °W | Updated 9 seconds ago

Rain
Rain
70.2 °F
Feels Like 70.2 °F
N
1.7
Wind Variable Wind from West
Gusts 3.8 mph

Today
High -- | Low -- °F
--% Chance of Precip.
Yesterday
High -- | Low -- °F
Precip. -- in
5:34 AM 8:26 PM
Waning Gibbous, 63% visible
Pressure 29.92 in
Visibility 10.0 miles
Clouds Overcast 500 ft
Dew Point 69 °F
Humidity 96%
Rainfall 0.61 in
Snow Depth Not available.
UV 3 out of 12
Pollen .50 out of 12
Air Quality Not available.
Flu Activity Not available.
METAR KDEC 071554Z 35011KT 10SM OVC005 21/19 A2993 RMK AO2 WSHFT 1459 RAB1456E33 SLP131 P0003 T02110194

More Conditions Fewer Conditions

Pressure 29.92 in
Visibility 10.0 miles
Clouds Overcast 500 ft
Dew Point 69 °F
Humidity 96%
Rainfall 0.61 in
Snow Depth Not available.
UV 3 out of 12
Pollen .50 out of 12
Air Quality Not available.
Flu Activity Not available.
METAR KDEC 071554Z 35011KT 10SM OVC005 21/19 A2993 RMK AO2 WSHFT 1459 RAB1456E33 SLP131 P0003 T02110194

More Conditions Fewer Conditions

10-Day Weather Forecast

×

Almanac

Astronomy

Jul. 07, 2015 Rise Set
Actual Time
Civil Twilight
Nautical Twilight
Astronomical Twilight
Moon
Length of Visible Light
Length of Day
Tomorrow will be .
, % of the Moon is Illuminated

Today's Extremes

State Highs State Lows

Community

WunderPhotos

Upload Photos

1,835,825 photos uploaded!

WunderBlogs® & News

Nearby

Air Quality

  Air Quality AQ Index Pollutant
Not available.

Snow Depth

Station Depth Elevation

Earthquake Activity

City Distance Mag. Time & Date
Minimum magnitude displayed is 2.5.

Coastal Water Temperatures

Place Temperature

Stations

Nearby Weather Stations

Station Location Temp. Windchill Dew Point Humidity Wind Precip. Elev Updated Type